createdAt,value
2022-09-02T00:04:37.856Z,16.03
2022-09-02T00:09:31.956Z,16.14
2022-09-02T00:14:31.975Z,16.02
2022-09-02T00:19:27.978Z,16.07
2022-09-02T00:24:24.087Z,16.01
2022-09-02T00:29:18.255Z,16.01
2022-09-02T00:34:13.289Z,15.81
2022-09-02T00:39:08.889Z,15.89
2022-09-02T00:44:09.434Z,15.96
2022-09-02T00:49:09.613Z,15.78
2022-09-02T00:54:04.933Z,15.77
2022-09-02T00:58:59.836Z,15.70
2022-09-02T01:03:55.313Z,15.76
2022-09-02T01:08:57.201Z,15.73
2022-09-02T01:13:50.998Z,15.71
2022-09-02T01:18:49.782Z,15.50
2022-09-02T01:23:44.594Z,15.34
2022-09-02T01:28:38.155Z,15.38
2022-09-02T01:33:32.046Z,15.00
2022-09-02T01:38:27.157Z,14.99
2022-09-02T01:43:26.798Z,15.08
2022-09-02T01:48:21.747Z,14.96
2022-09-02T01:53:15.668Z,15.03
2022-09-02T01:58:09.288Z,14.90
2022-09-02T02:03:04.735Z,14.94
2022-09-02T02:07:58.351Z,14.80
2022-09-02T02:12:52.672Z,15.01
2022-09-02T02:17:47.008Z,15.18
2022-09-02T02:22:42.205Z,15.12
2022-09-02T02:27:35.792Z,15.54
2022-09-02T02:32:32.644Z,14.87
2022-09-02T02:37:26.926Z,14.90
2022-09-02T02:42:21.866Z,14.78
2022-09-02T02:47:16.391Z,14.70
2022-09-02T02:52:11.230Z,14.65
2022-09-02T02:57:05.403Z,14.41
2022-09-02T03:02:00.584Z,14.50
2022-09-02T03:06:54.127Z,14.57
2022-09-02T03:11:47.659Z,14.46
2022-09-02T03:16:41.222Z,14.51
2022-09-02T03:21:39.277Z,14.56
2022-09-02T03:26:32.839Z,14.49
2022-09-02T03:31:28.667Z,14.38
2022-09-02T03:36:24.940Z,14.48
2022-09-02T03:41:20.076Z,14.32
2022-09-02T03:46:14.214Z,14.24
2022-09-02T03:51:08.635Z,14.30
2022-09-02T03:56:07.949Z,14.28
2022-09-02T04:01:03.067Z,14.09
2022-09-02T04:05:56.631Z,14.11
2022-09-02T04:10:50.574Z,14.06
2022-09-02T04:15:48.110Z,14.00
2022-09-02T04:20:53.601Z,13.95
2022-09-02T04:25:46.993Z,13.98
2022-09-02T04:30:40.894Z,14.03
2022-09-02T04:35:35.906Z,14.03
2022-09-02T04:40:31.566Z,13.86
2022-09-02T04:45:29.619Z,13.90
2022-09-02T04:50:23.280Z,13.95
2022-09-02T04:55:16.645Z,13.99
2022-09-02T05:00:13.498Z,13.95
2022-09-02T05:05:08.286Z,14.01
2022-09-02T05:10:04.002Z,14.05
2022-09-02T05:15:00.281Z,14.04
2022-09-02T05:19:55.512Z,14.11
2022-09-02T05:24:48.955Z,14.09
2022-09-02T05:29:45.334Z,14.15
2022-09-02T05:34:39.878Z,14.34
2022-09-02T05:39:34.689Z,14.23
2022-09-02T05:44:29.217Z,14.06
2022-09-02T05:49:22.715Z,14.00
2022-09-02T05:54:19.763Z,14.28
2022-09-02T05:59:15.201Z,14.46
2022-09-02T06:04:09.303Z,14.67
2022-09-02T06:09:05.240Z,14.76
2022-09-02T06:13:59.559Z,14.81
2022-09-02T06:19:08.625Z,14.90
2022-09-02T06:24:02.293Z,14.96
2022-09-02T06:28:55.782Z,15.04
2022-09-02T06:33:54.127Z,15.04
2022-09-02T06:38:53.845Z,14.98
2022-09-02T06:43:47.326Z,15.12
2022-09-02T06:48:43.979Z,15.42
2022-09-02T06:53:37.329Z,15.40
2022-09-02T06:58:32.107Z,15.48
2022-09-02T07:03:42.678Z,15.61
2022-09-02T07:08:36.709Z,15.75
2022-09-02T07:13:31.507Z,15.63
2022-09-02T07:18:24.870Z,15.67
2022-09-02T07:23:18.313Z,15.74
2022-09-02T07:28:12.994Z,15.88
2022-09-02T07:33:07.754Z,16.09
2022-09-02T07:38:01.138Z,16.18
2022-09-02T07:42:54.785Z,16.42
2022-09-02T07:47:49.152Z,16.97
2022-09-02T07:52:43.981Z,17.16
2022-09-02T07:57:37.438Z,17.44
2022-09-02T08:02:32.174Z,17.84
2022-09-02T08:07:25.691Z,17.67
2022-09-02T08:12:22.294Z,17.89
2022-09-02T08:17:16.028Z,17.91
2022-09-02T08:22:12.401Z,18.04
2022-09-02T08:27:06.370Z,18.23
2022-09-02T08:32:01.224Z,18.42
2022-09-02T08:36:58.078Z,18.45
2022-09-02T08:42:06.668Z,18.53
2022-09-02T08:47:07.215Z,18.80
2022-09-02T08:52:06.144Z,18.86
2022-09-02T08:57:00.072Z,19.08
2022-09-02T09:02:08.751Z,19.26
2022-09-02T09:07:32.764Z,19.48
2022-09-02T09:12:50.679Z,19.66
2022-09-02T09:17:53.876Z,19.94
2022-09-02T09:22:50.792Z,19.99
2022-09-02T09:27:46.101Z,19.92
2022-09-02T09:32:47.555Z,20.21
2022-09-02T09:37:43.215Z,20.32
2022-09-02T09:42:38.742Z,20.58
2022-09-02T09:47:35.339Z,20.37
2022-09-02T09:52:31.896Z,20.60
2022-09-02T09:57:25.548Z,20.63
2022-09-02T10:02:34.428Z,20.71
2022-09-02T10:07:41.043Z,20.88
2022-09-02T10:12:38.518Z,20.98
2022-09-02T10:17:44.854Z,21.01
2022-09-02T10:23:06.861Z,20.96
2022-09-02T10:28:14.819Z,20.82
2022-09-02T10:33:24.534Z,20.88
2022-09-02T10:38:38.450Z,21.07
2022-09-02T10:44:00.798Z,21.22
2022-09-02T10:49:10.524Z,21.15
2022-09-02T10:54:25.780Z,21.30
2022-09-02T10:59:26.935Z,21.39
2022-09-02T11:04:31.646Z,21.36
2022-09-02T11:09:37.011Z,21.26
2022-09-02T11:14:38.422Z,21.41
2022-09-02T11:19:42.242Z,21.42
2022-09-02T11:24:46.631Z,21.44
2022-09-02T11:29:58.681Z,21.50
2022-09-02T11:34:57.211Z,21.52
2022-09-02T11:40:23.419Z,21.58
2022-09-02T11:45:56.871Z,21.69
2022-09-02T11:51:21.951Z,21.90
2022-09-02T11:56:23.178Z,21.91
2022-09-02T12:01:40.715Z,21.84
2022-09-02T12:06:37.811Z,21.82
2022-09-02T12:11:50.777Z,21.85
2022-09-02T12:17:03.675Z,21.80
2022-09-02T12:22:42.665Z,21.93
2022-09-02T12:27:41.130Z,21.87
2022-09-02T12:33:09.750Z,21.88
2022-09-02T12:38:31.022Z,21.73
2022-09-02T12:43:32.718Z,21.80
2022-09-02T12:48:38.871Z,21.93
2022-09-02T12:53:41.346Z,21.80
2022-09-02T12:58:41.416Z,21.73
2022-09-02T13:04:22.360Z,21.68
2022-09-02T13:10:19.417Z,21.65
2022-09-02T13:16:18.419Z,21.61
2022-09-02T13:21:52.259Z,21.48
2022-09-02T13:27:37.115Z,21.55
2022-09-02T13:32:34.050Z,21.47
2022-09-02T13:37:34.104Z,21.35
2022-09-02T13:42:37.550Z,21.43
2022-09-02T13:47:37.170Z,21.56
2022-09-02T13:53:12.504Z,21.48
2022-09-02T13:57:54.089Z,21.50
2022-09-02T14:03:00.821Z,21.67
2022-09-02T14:07:58.606Z,21.71
2022-09-02T14:12:52.912Z,21.71
2022-09-02T14:17:46.288Z,21.71
2022-09-02T14:22:41.202Z,21.75
2022-09-02T14:27:34.647Z,21.78
2022-09-02T14:32:29.848Z,21.77
2022-09-02T14:37:28.638Z,21.77
2022-09-02T14:42:26.236Z,21.69
2022-09-02T14:47:24.310Z,21.67
2022-09-02T14:52:22.557Z,21.66
2022-09-02T14:57:28.419Z,21.62
2022-09-02T15:02:33.195Z,21.60
2022-09-02T15:07:27.373Z,21.75
2022-09-02T15:12:25.621Z,21.80
2022-09-02T15:17:19.293Z,21.90
2022-09-02T15:22:13.536Z,21.95
2022-09-02T15:27:07.165Z,21.95
2022-09-02T15:32:04.030Z,21.84
2022-09-02T15:36:58.115Z,21.70
2022-09-02T15:41:51.636Z,21.53
2022-09-02T15:46:45.941Z,21.38
2022-09-02T15:51:40.977Z,21.21
2022-09-02T15:56:37.171Z,21.08
2022-09-02T16:01:33.198Z,21.02
2022-09-02T16:06:27.155Z,20.98
2022-09-02T16:11:23.173Z,20.95
2022-09-02T16:16:17.433Z,20.97
2022-09-02T16:21:13.445Z,20.99
2022-09-02T16:26:16.164Z,20.85
2022-09-02T16:31:13.553Z,20.81
2022-09-02T16:36:08.547Z,20.83
2022-09-02T16:41:02.176Z,20.81
2022-09-02T16:45:55.754Z,20.76
2022-09-02T16:50:52.368Z,20.70
2022-09-02T16:55:47.824Z,20.66
2022-09-02T17:00:42.206Z,20.64
2022-09-02T17:05:35.827Z,20.60
2022-09-02T17:10:32.108Z,20.46
2022-09-02T17:15:27.098Z,20.34
2022-09-02T17:20:20.608Z,20.32
2022-09-02T17:25:14.552Z,20.30
2022-09-02T17:30:12.347Z,20.31
2022-09-02T17:35:07.149Z,20.20
2022-09-02T17:40:00.536Z,20.13
2022-09-02T17:44:53.927Z,20.17
2022-09-02T17:49:49.908Z,20.09
2022-09-02T17:54:44.009Z,19.98
2022-09-02T18:00:05.380Z,19.98
2022-09-02T18:05:09.704Z,20.03
2022-09-02T18:10:03.179Z,19.88
2022-09-02T18:15:00.261Z,19.92
2022-09-02T18:20:09.382Z,19.98
2022-09-02T18:25:40.035Z,19.91
2022-09-02T18:30:46.177Z,19.75
2022-09-02T18:35:55.630Z,19.62
2022-09-02T18:41:05.670Z,19.60
2022-09-02T18:46:02.206Z,19.59
2022-09-02T18:51:03.561Z,19.48
2022-09-02T18:56:03.458Z,19.48
2022-09-02T19:01:03.603Z,19.61
2022-09-02T19:05:59.168Z,19.67
2022-09-02T19:11:02.094Z,19.73
2022-09-02T19:15:55.951Z,19.62
2022-09-02T19:21:00.327Z,19.57
2022-09-02T19:25:54.396Z,19.55
2022-09-02T19:30:48.098Z,19.53
2022-09-02T19:35:47.658Z,19.51
2022-09-02T19:40:42.583Z,19.50
2022-09-02T19:45:37.477Z,19.49
2022-09-02T19:50:31.531Z,19.44
2022-09-02T19:55:25.248Z,19.40
2022-09-02T20:00:20.599Z,19.20
2022-09-02T20:05:15.409Z,19.21
2022-09-02T20:10:11.142Z,19.14
2022-09-02T20:15:06.782Z,19.15
2022-09-02T20:20:03.289Z,19.09
2022-09-02T20:25:01.110Z,19.00
2022-09-02T20:30:07.562Z,19.09
2022-09-02T20:35:24.345Z,19.17
2022-09-02T20:40:37.482Z,19.11
2022-09-02T20:45:40.202Z,19.02
2022-09-02T20:50:47.721Z,19.06
2022-09-02T20:55:54.044Z,19.13
2022-09-02T21:01:06.804Z,19.10
2022-09-02T21:06:49.612Z,19.00
2022-09-02T21:11:55.808Z,19.02
2022-09-02T21:17:37.286Z,19.07
2022-09-02T21:22:39.147Z,19.09
2022-09-02T21:27:45.069Z,18.90
2022-09-02T21:32:43.224Z,18.74
2022-09-02T21:37:41.260Z,18.67
2022-09-02T21:42:54.992Z,18.64
2022-09-02T21:48:03.798Z,18.53
2022-09-02T21:53:16.895Z,18.36
2022-09-02T21:58:37.701Z,18.35
2022-09-02T22:03:41.435Z,18.39
2022-09-02T22:08:47.171Z,18.23
2022-09-02T22:13:42.096Z,18.31
2022-09-02T22:18:40.729Z,18.09
2022-09-02T22:23:36.300Z,18.12
2022-09-02T22:28:40.048Z,18.25
2022-09-02T22:33:42.818Z,18.12
2022-09-02T22:38:46.313Z,18.03
2022-09-02T22:43:50.151Z,17.91
2022-09-02T22:49:10.006Z,17.76
2022-09-02T22:54:05.192Z,17.77
2022-09-02T22:59:24.285Z,17.68
2022-09-02T23:04:40.139Z,17.77
2022-09-02T23:09:37.717Z,17.71
2022-09-02T23:14:44.551Z,17.54
2022-09-02T23:19:58.996Z,17.31
2022-09-02T23:25:13.863Z,17.42
2022-09-02T23:30:08.245Z,17.59
2022-09-02T23:35:24.143Z,17.78
2022-09-02T23:40:28.230Z,17.72
2022-09-02T23:45:31.008Z,17.55
2022-09-02T23:50:38.196Z,17.34
2022-09-02T23:55:48.610Z,17.38
